sensor_id;sensor_type;location;lat;lon;timestamp;P1;durP1;ratioP1;P2;durP2;ratioP2
16304;SDS011;8261;47.678;-122.174;2022-08-25T00:00:22;3.85;;;3.38;;
16304;SDS011;8261;47.678;-122.174;2022-08-25T00:02:58;4.43;;;3.35;;
16304;SDS011;8261;47.678;-122.174;2022-08-25T00:05:30;4.00;;;3.65;;
16304;SDS011;8261;47.678;-122.174;2022-08-25T00:08:04;4.85;;;3.67;;
16304;SDS011;8261;47.678;-122.174;2022-08-25T00:10:36;7.32;;;3.00;;
16304;SDS011;8261;47.678;-122.174;2022-08-25T00:13:29;3.85;;;3.10;;
16304;SDS011;8261;47.678;-122.174;2022-08-25T00:16:01;4.03;;;2.92;;
16304;SDS011;8261;47.678;-122.174;2022-08-25T00:18:37;3.35;;;3.05;;
16304;SDS011;8261;47.678;-122.174;2022-08-25T00:21:12;4.53;;;3.17;;
16304;SDS011;8261;47.678;-122.174;2022-08-25T00:23:48;3.80;;;3.05;;
16304;SDS011;8261;47.678;-122.174;2022-08-25T00:26:20;3.28;;;2.97;;
16304;SDS011;8261;47.678;-122.174;2022-08-25T00:28:52;3.25;;;3.00;;
16304;SDS011;8261;47.678;-122.174;2022-08-25T00:31:28;4.90;;;2.80;;
16304;SDS011;8261;47.678;-122.174;2022-08-25T00:34:08;4.70;;;2.92;;
16304;SDS011;8261;47.678;-122.174;2022-08-25T00:36:42;3.70;;;2.70;;
16304;SDS011;8261;47.678;-122.174;2022-08-25T00:39:17;4.10;;;3.08;;
16304;SDS011;8261;47.678;-122.174;2022-08-25T00:41:51;6.05;;;2.90;;
16304;SDS011;8261;47.678;-122.174;2022-08-25T00:44:25;3.20;;;2.90;;
16304;SDS011;8261;47.678;-122.174;2022-08-25T00:47:02;3.60;;;2.80;;
16304;SDS011;8261;47.678;-122.174;2022-08-25T00:49:39;3.13;;;2.80;;
16304;SDS011;8261;47.678;-122.174;2022-08-25T00:52:15;4.80;;;3.17;;
16304;SDS011;8261;47.678;-122.174;2022-08-25T00:54:51;3.33;;;3.03;;
16304;SDS011;8261;47.678;-122.174;2022-08-25T00:57:29;3.17;;;2.85;;
16304;SDS011;8261;47.678;-122.174;2022-08-25T01:00:08;3.63;;;3.00;;
16304;SDS011;8261;47.678;-122.174;2022-08-25T01:02:43;4.53;;;3.42;;
16304;SDS011;8261;47.678;-122.174;2022-08-25T01:05:17;4.65;;;3.40;;
16304;SDS011;8261;47.678;-122.174;2022-08-25T01:07:48;4.57;;;3.30;;
16304;SDS011;8261;47.678;-122.174;2022-08-25T01:10:25;3.83;;;3.03;;
16304;SDS011;8261;47.678;-122.174;2022-08-25T01:12:59;3.33;;;3.13;;
16304;SDS011;8261;47.678;-122.174;2022-08-25T01:15:42;3.60;;;3.30;;
16304;SDS011;8261;47.678;-122.174;2022-08-25T01:18:14;3.70;;;3.40;;
16304;SDS011;8261;47.678;-122.174;2022-08-25T01:20:50;3.50;;;3.20;;
16304;SDS011;8261;47.678;-122.174;2022-08-25T01:23:25;6.22;;;3.28;;
16304;SDS011;8261;47.678;-122.174;2022-08-25T01:25:57;6.03;;;3.97;;
16304;SDS011;8261;47.678;-122.174;2022-08-25T01:28:34;4.47;;;3.35;;
16304;SDS011;8261;47.678;-122.174;2022-08-25T01:31:27;4.00;;;3.60;;
16304;SDS011;8261;47.678;-122.174;2022-08-25T01:34:00;5.13;;;3.58;;
16304;SDS011;8261;47.678;-122.174;2022-08-25T01:39:45;5.35;;;3.53;;
16304;SDS011;8261;47.678;-122.174;2022-08-25T01:42:27;5.45;;;3.80;;
16304;SDS011;8261;47.678;-122.174;2022-08-25T01:45:11;9.23;;;3.80;;
16304;SDS011;8261;47.678;-122.174;2022-08-25T01:47:43;4.40;;;3.90;;
16304;SDS011;8261;47.678;-122.174;2022-08-25T01:50:22;4.40;;;4.00;;
16304;SDS011;8261;47.678;-122.174;2022-08-25T01:56:24;5.37;;;4.00;;
16304;SDS011;8261;47.678;-122.174;2022-08-25T01:59:00;4.65;;;4.00;;
16304;SDS011;8261;47.678;-122.174;2022-08-25T02:01:32;4.17;;;3.80;;
16304;SDS011;8261;47.678;-122.174;2022-08-25T02:04:03;4.90;;;4.10;;
16304;SDS011;8261;47.678;-122.174;2022-08-25T02:06:35;6.40;;;4.20;;
16304;SDS011;8261;47.678;-122.174;2022-08-25T02:09:08;4.53;;;3.87;;
16304;SDS011;8261;47.678;-122.174;2022-08-25T02:11:44;5.63;;;4.00;;
16304;SDS011;8261;47.678;-122.174;2022-08-25T02:14:16;7.03;;;3.97;;
16304;SDS011;8261;47.678;-122.174;2022-08-25T02:16:49;6.50;;;4.37;;
16304;SDS011;8261;47.678;-122.174;2022-08-25T02:19:22;7.23;;;3.97;;
16304;SDS011;8261;47.678;-122.174;2022-08-25T02:24:29;5.43;;;3.70;;
16304;SDS011;8261;47.678;-122.174;2022-08-25T02:27:03;5.37;;;3.57;;
16304;SDS011;8261;47.678;-122.174;2022-08-25T02:29:35;6.30;;;4.17;;
16304;SDS011;8261;47.678;-122.174;2022-08-25T02:32:07;6.47;;;5.20;;
16304;SDS011;8261;47.678;-122.174;2022-08-25T02:34:38;8.77;;;5.20;;
16304;SDS011;8261;47.678;-122.174;2022-08-25T02:37:10;7.27;;;4.70;;
16304;SDS011;8261;47.678;-122.174;2022-08-25T02:40:08;5.83;;;4.20;;
16304;SDS011;8261;47.678;-122.174;2022-08-25T02:49:18;5.40;;;4.40;;
16304;SDS011;8261;47.678;-122.174;2022-08-25T02:52:12;7.67;;;4.37;;
16304;SDS011;8261;47.678;-122.174;2022-08-25T02:55:10;4.93;;;3.80;;
16304;SDS011;8261;47.678;-122.174;2022-08-25T03:06:08;6.27;;;3.93;;
16304;SDS011;8261;47.678;-122.174;2022-08-25T03:11:33;7.97;;;4.53;;
16304;SDS011;8261;47.678;-122.174;2022-08-25T03:14:23;17.63;;;8.87;;
16304;SDS011;8261;47.678;-122.174;2022-08-25T03:16:55;12.43;;;7.37;;
16304;SDS011;8261;47.678;-122.174;2022-08-25T03:19:26;16.07;;;8.30;;
16304;SDS011;8261;47.678;-122.174;2022-08-25T03:22:03;8.37;;;5.10;;
16304;SDS011;8261;47.678;-122.174;2022-08-25T03:24:41;13.23;;;7.73;;
16304;SDS011;8261;47.678;-122.174;2022-08-25T03:27:27;7.20;;;6.00;;
16304;SDS011;8261;47.678;-122.174;2022-08-25T03:30:08;5.53;;;4.70;;
16304;SDS011;8261;47.678;-122.174;2022-08-25T03:32:53;5.70;;;4.20;;
16304;SDS011;8261;47.678;-122.174;2022-08-25T03:35:25;4.97;;;4.47;;
16304;SDS011;8261;47.678;-122.174;2022-08-25T03:38:24;5.27;;;4.60;;
16304;SDS011;8261;47.678;-122.174;2022-08-25T03:41:10;4.87;;;4.40;;
16304;SDS011;8261;47.678;-122.174;2022-08-25T03:43:46;4.50;;;4.10;;
16304;SDS011;8261;47.678;-122.174;2022-08-25T03:46:45;6.33;;;4.93;;
16304;SDS011;8261;47.678;-122.174;2022-08-25T03:49:23;6.13;;;4.73;;
16304;SDS011;8261;47.678;-122.174;2022-08-25T03:52:09;6.23;;;4.53;;
16304;SDS011;8261;47.678;-122.174;2022-08-25T03:57:40;5.43;;;4.97;;
16304;SDS011;8261;47.678;-122.174;2022-08-25T04:00:16;7.37;;;4.93;;
16304;SDS011;8261;47.678;-122.174;2022-08-25T04:02:52;7.60;;;5.10;;
16304;SDS011;8261;47.678;-122.174;2022-08-25T04:05:36;7.53;;;5.10;;
16304;SDS011;8261;47.678;-122.174;2022-08-25T04:08:18;5.80;;;4.90;;
16304;SDS011;8261;47.678;-122.174;2022-08-25T04:10:49;7.20;;;5.10;;
16304;SDS011;8261;47.678;-122.174;2022-08-25T04:13:25;9.13;;;5.23;;
16304;SDS011;8261;47.678;-122.174;2022-08-25T04:16:09;8.63;;;4.87;;
16304;SDS011;8261;47.678;-122.174;2022-08-25T04:18:42;7.47;;;4.80;;
16304;SDS011;8261;47.678;-122.174;2022-08-25T04:21:14;5.73;;;4.67;;
16304;SDS011;8261;47.678;-122.174;2022-08-25T04:23:49;5.50;;;5.00;;
16304;SDS011;8261;47.678;-122.174;2022-08-25T04:26:22;6.23;;;5.07;;
16304;SDS011;8261;47.678;-122.174;2022-08-25T04:28:58;6.93;;;5.30;;
16304;SDS011;8261;47.678;-122.174;2022-08-25T04:31:30;6.93;;;4.83;;
16304;SDS011;8261;47.678;-122.174;2022-08-25T04:34:02;8.10;;;5.20;;
16304;SDS011;8261;47.678;-122.174;2022-08-25T04:36:56;6.67;;;4.87;;
16304;SDS011;8261;47.678;-122.174;2022-08-25T04:39:31;5.27;;;4.33;;
16304;SDS011;8261;47.678;-122.174;2022-08-25T04:42:08;7.37;;;4.83;;
16304;SDS011;8261;47.678;-122.174;2022-08-25T04:45:12;7.97;;;4.97;;
16304;SDS011;8261;47.678;-122.174;2022-08-25T04:47:54;7.03;;;4.70;;
16304;SDS011;8261;47.678;-122.174;2022-08-25T04:50:39;8.70;;;5.17;;
16304;SDS011;8261;47.678;-122.174;2022-08-25T04:53:11;7.97;;;5.23;;
16304;SDS011;8261;47.678;-122.174;2022-08-25T04:55:46;5.77;;;5.27;;
16304;SDS011;8261;47.678;-122.174;2022-08-25T04:58:18;8.53;;;4.93;;
16304;SDS011;8261;47.678;-122.174;2022-08-25T05:00:52;6.93;;;4.70;;
16304;SDS011;8261;47.678;-122.174;2022-08-25T05:03:32;5.23;;;4.40;;
16304;SDS011;8261;47.678;-122.174;2022-08-25T05:06:03;5.57;;;4.73;;
16304;SDS011;8261;47.678;-122.174;2022-08-25T05:08:41;7.57;;;5.37;;
16304;SDS011;8261;47.678;-122.174;2022-08-25T05:11:13;6.63;;;4.90;;
16304;SDS011;8261;47.678;-122.174;2022-08-25T05:13:49;6.73;;;4.90;;
16304;SDS011;8261;47.678;-122.174;2022-08-25T05:16:25;5.63;;;4.60;;
16304;SDS011;8261;47.678;-122.174;2022-08-25T05:18:57;7.00;;;5.20;;
16304;SDS011;8261;47.678;-122.174;2022-08-25T05:21:28;6.70;;;4.67;;
16304;SDS011;8261;47.678;-122.174;2022-08-25T05:24:00;13.03;;;5.20;;
16304;SDS011;8261;47.678;-122.174;2022-08-25T05:26:32;5.73;;;5.00;;
16304;SDS011;8261;47.678;-122.174;2022-08-25T05:29:05;5.03;;;4.53;;
16304;SDS011;8261;47.678;-122.174;2022-08-25T05:31:39;6.10;;;4.87;;
16304;SDS011;8261;47.678;-122.174;2022-08-25T05:34:16;5.70;;;4.80;;
16304;SDS011;8261;47.678;-122.174;2022-08-25T05:36:49;5.07;;;4.63;;
16304;SDS011;8261;47.678;-122.174;2022-08-25T05:39:20;6.80;;;5.00;;
16304;SDS011;8261;47.678;-122.174;2022-08-25T05:41:52;5.53;;;4.70;;
16304;SDS011;8261;47.678;-122.174;2022-08-25T05:44:24;6.83;;;5.10;;
16304;SDS011;8261;47.678;-122.174;2022-08-25T05:47:01;5.03;;;4.63;;
16304;SDS011;8261;47.678;-122.174;2022-08-25T05:49:33;5.33;;;4.80;;
16304;SDS011;8261;47.678;-122.174;2022-08-25T05:52:05;6.57;;;4.90;;
16304;SDS011;8261;47.678;-122.174;2022-08-25T05:54:41;7.43;;;4.90;;
16304;SDS011;8261;47.678;-122.174;2022-08-25T05:57:12;6.17;;;4.70;;
16304;SDS011;8261;47.678;-122.174;2022-08-25T05:59:43;6.93;;;5.00;;
16304;SDS011;8261;47.678;-122.174;2022-08-25T06:02:17;6.77;;;5.07;;
16304;SDS011;8261;47.678;-122.174;2022-08-25T06:05:05;6.77;;;5.10;;
16304;SDS011;8261;47.678;-122.174;2022-08-25T06:08:03;5.77;;;5.17;;
16304;SDS011;8261;47.678;-122.174;2022-08-25T06:10:41;5.57;;;5.03;;
16304;SDS011;8261;47.678;-122.174;2022-08-25T06:13:14;5.83;;;5.23;;
16304;SDS011;8261;47.678;-122.174;2022-08-25T06:15:56;7.40;;;5.50;;
16304;SDS011;8261;47.678;-122.174;2022-08-25T06:18:29;5.87;;;5.27;;
16304;SDS011;8261;47.678;-122.174;2022-08-25T06:21:06;8.93;;;5.07;;
16304;SDS011;8261;47.678;-122.174;2022-08-25T06:23:40;5.60;;;5.10;;
16304;SDS011;8261;47.678;-122.174;2022-08-25T06:26:12;6.27;;;5.50;;
16304;SDS011;8261;47.678;-122.174;2022-08-25T06:28:47;6.13;;;5.53;;
16304;SDS011;8261;47.678;-122.174;2022-08-25T06:31:19;5.30;;;4.80;;
16304;SDS011;8261;47.678;-122.174;2022-08-25T06:33:53;6.43;;;5.33;;
16304;SDS011;8261;47.678;-122.174;2022-08-25T06:36:25;5.27;;;4.77;;
16304;SDS011;8261;47.678;-122.174;2022-08-25T06:38:56;5.77;;;5.27;;
16304;SDS011;8261;47.678;-122.174;2022-08-25T06:41:27;5.30;;;4.80;;
16304;SDS011;8261;47.678;-122.174;2022-08-25T06:44:03;5.47;;;4.90;;
16304;SDS011;8261;47.678;-122.174;2022-08-25T06:46:35;5.70;;;5.20;;
16304;SDS011;8261;47.678;-122.174;2022-08-25T06:49:09;6.33;;;5.43;;
16304;SDS011;8261;47.678;-122.174;2022-08-25T06:51:41;5.57;;;5.07;;
16304;SDS011;8261;47.678;-122.174;2022-08-25T06:54:13;5.63;;;5.13;;
16304;SDS011;8261;47.678;-122.174;2022-08-25T06:59:45;6.50;;;5.37;;
16304;SDS011;8261;47.678;-122.174;2022-08-25T07:02:19;9.50;;;5.70;;
16304;SDS011;8261;47.678;-122.174;2022-08-25T07:04:52;6.73;;;5.50;;
16304;SDS011;8261;47.678;-122.174;2022-08-25T07:07:23;6.90;;;5.40;;
16304;SDS011;8261;47.678;-122.174;2022-08-25T07:10:10;5.97;;;5.37;;
16304;SDS011;8261;47.678;-122.174;2022-08-25T07:12:45;7.00;;;5.70;;
16304;SDS011;8261;47.678;-122.174;2022-08-25T07:15:18;6.03;;;5.47;;
16304;SDS011;8261;47.678;-122.174;2022-08-25T07:17:49;6.00;;;5.40;;
16304;SDS011;8261;47.678;-122.174;2022-08-25T07:20:23;6.37;;;5.23;;
16304;SDS011;8261;47.678;-122.174;2022-08-25T07:22:56;7.60;;;5.23;;
16304;SDS011;8261;47.678;-122.174;2022-08-25T07:25:27;6.37;;;5.00;;
16304;SDS011;8261;47.678;-122.174;2022-08-25T07:27:59;6.07;;;5.53;;
16304;SDS011;8261;47.678;-122.174;2022-08-25T07:30:35;6.13;;;5.53;;
16304;SDS011;8261;47.678;-122.174;2022-08-25T07:33:08;8.40;;;5.83;;
16304;SDS011;8261;47.678;-122.174;2022-08-25T07:35:42;5.57;;;5.07;;
16304;SDS011;8261;47.678;-122.174;2022-08-25T07:38:17;6.77;;;5.63;;
16304;SDS011;8261;47.678;-122.174;2022-08-25T07:40:49;8.33;;;5.57;;
16304;SDS011;8261;47.678;-122.174;2022-08-25T07:43:23;6.17;;;5.57;;
16304;SDS011;8261;47.678;-122.174;2022-08-25T07:45:54;9.60;;;5.63;;
16304;SDS011;8261;47.678;-122.174;2022-08-25T07:48:26;6.63;;;5.97;;
16304;SDS011;8261;47.678;-122.174;2022-08-25T07:51:05;5.83;;;5.33;;
16304;SDS011;8261;47.678;-122.174;2022-08-25T07:53:37;6.00;;;5.40;;
16304;SDS011;8261;47.678;-122.174;2022-08-25T07:56:11;7.93;;;5.90;;
16304;SDS011;8261;47.678;-122.174;2022-08-25T07:58:44;9.07;;;5.80;;
16304;SDS011;8261;47.678;-122.174;2022-08-25T08:01:17;8.40;;;5.67;;
16304;SDS011;8261;47.678;-122.174;2022-08-25T08:03:49;6.33;;;5.73;;
16304;SDS011;8261;47.678;-122.174;2022-08-25T08:06:26;8.03;;;5.97;;
16304;SDS011;8261;47.678;-122.174;2022-08-25T08:08:57;6.43;;;5.27;;
16304;SDS011;8261;47.678;-122.174;2022-08-25T08:11:30;8.07;;;5.60;;
16304;SDS011;8261;47.678;-122.174;2022-08-25T08:14:19;6.77;;;5.53;;
16304;SDS011;8261;47.678;-122.174;2022-08-25T08:16:50;6.20;;;5.60;;
16304;SDS011;8261;47.678;-122.174;2022-08-25T08:19:22;8.93;;;5.90;;
16304;SDS011;8261;47.678;-122.174;2022-08-25T08:21:57;7.33;;;5.93;;
16304;SDS011;8261;47.678;-122.174;2022-08-25T08:24:28;6.27;;;5.67;;
16304;SDS011;8261;47.678;-122.174;2022-08-25T08:27:20;7.60;;;6.47;;
16304;SDS011;8261;47.678;-122.174;2022-08-25T08:29:53;7.47;;;5.70;;
16304;SDS011;8261;47.678;-122.174;2022-08-25T08:32:50;10.40;;;6.40;;
16304;SDS011;8261;47.678;-122.174;2022-08-25T08:35:37;8.37;;;5.43;;
16304;SDS011;8261;47.678;-122.174;2022-08-25T08:38:10;7.60;;;5.37;;
16304;SDS011;8261;47.678;-122.174;2022-08-25T08:40:55;7.70;;;5.60;;
16304;SDS011;8261;47.678;-122.174;2022-08-25T08:43:54;8.37;;;5.03;;
16304;SDS011;8261;47.678;-122.174;2022-08-25T08:46:34;9.07;;;5.57;;
16304;SDS011;8261;47.678;-122.174;2022-08-25T08:49:13;7.57;;;6.10;;
16304;SDS011;8261;47.678;-122.174;2022-08-25T08:51:55;7.00;;;5.80;;
16304;SDS011;8261;47.678;-122.174;2022-08-25T08:54:34;6.37;;;5.77;;
16304;SDS011;8261;47.678;-122.174;2022-08-25T08:57:08;6.83;;;6.10;;
16304;SDS011;8261;47.678;-122.174;2022-08-25T08:59:46;8.53;;;5.80;;
16304;SDS011;8261;47.678;-122.174;2022-08-25T09:02:24;10.80;;;5.83;;
16304;SDS011;8261;47.678;-122.174;2022-08-25T09:05:18;7.97;;;5.63;;
16304;SDS011;8261;47.678;-122.174;2022-08-25T09:07:52;8.27;;;5.60;;
16304;SDS011;8261;47.678;-122.174;2022-08-25T09:10:36;6.30;;;5.70;;
16304;SDS011;8261;47.678;-122.174;2022-08-25T09:13:15;5.73;;;5.23;;
16304;SDS011;8261;47.678;-122.174;2022-08-25T09:15:53;7.33;;;5.37;;
16304;SDS011;8261;47.678;-122.174;2022-08-25T09:19:03;9.83;;;5.77;;
16304;SDS011;8261;47.678;-122.174;2022-08-25T09:21:50;6.23;;;5.50;;
16304;SDS011;8261;47.678;-122.174;2022-08-25T09:24:29;6.37;;;5.77;;
16304;SDS011;8261;47.678;-122.174;2022-08-25T09:27:13;6.40;;;5.80;;
16304;SDS011;8261;47.678;-122.174;2022-08-25T09:30:00;6.77;;;6.10;;
16304;SDS011;8261;47.678;-122.174;2022-08-25T09:32:37;6.63;;;6.03;;
16304;SDS011;8261;47.678;-122.174;2022-08-25T09:35:18;8.73;;;5.70;;
16304;SDS011;8261;47.678;-122.174;2022-08-25T09:37:56;6.60;;;5.87;;
16304;SDS011;8261;47.678;-122.174;2022-08-25T09:40:29;7.30;;;6.07;;
16304;SDS011;8261;47.678;-122.174;2022-08-25T09:43:17;8.57;;;6.33;;
16304;SDS011;8261;47.678;-122.174;2022-08-25T09:45:56;6.67;;;5.97;;
16304;SDS011;8261;47.678;-122.174;2022-08-25T09:48:31;9.97;;;6.13;;
16304;SDS011;8261;47.678;-122.174;2022-08-25T09:51:11;6.50;;;5.47;;
16304;SDS011;8261;47.678;-122.174;2022-08-25T09:53:49;6.93;;;6.30;;
16304;SDS011;8261;47.678;-122.174;2022-08-25T09:56:24;10.03;;;6.30;;
16304;SDS011;8261;47.678;-122.174;2022-08-25T09:59:18;8.93;;;6.03;;
16304;SDS011;8261;47.678;-122.174;2022-08-25T10:02:01;6.97;;;6.07;;
16304;SDS011;8261;47.678;-122.174;2022-08-25T10:04:53;7.67;;;6.63;;
16304;SDS011;8261;47.678;-122.174;2022-08-25T10:07:26;8.37;;;6.40;;
16304;SDS011;8261;47.678;-122.174;2022-08-25T10:10:03;7.60;;;6.80;;
16304;SDS011;8261;47.678;-122.174;2022-08-25T10:12:45;6.60;;;6.00;;
16304;SDS011;8261;47.678;-122.174;2022-08-25T10:15:20;8.97;;;6.43;;
16304;SDS011;8261;47.678;-122.174;2022-08-25T10:17:56;7.73;;;6.17;;
16304;SDS011;8261;47.678;-122.174;2022-08-25T10:21:02;11.23;;;6.70;;
16304;SDS011;8261;47.678;-122.174;2022-08-25T10:23:38;9.23;;;6.00;;
16304;SDS011;8261;47.678;-122.174;2022-08-25T10:26:19;6.90;;;6.20;;
16304;SDS011;8261;47.678;-122.174;2022-08-25T10:29:13;6.53;;;6.03;;
16304;SDS011;8261;47.678;-122.174;2022-08-25T10:31:55;6.43;;;5.83;;
16304;SDS011;8261;47.678;-122.174;2022-08-25T10:34:33;6.73;;;6.07;;
16304;SDS011;8261;47.678;-122.174;2022-08-25T10:37:20;6.73;;;5.97;;
16304;SDS011;8261;47.678;-122.174;2022-08-25T10:40:02;8.53;;;6.17;;
16304;SDS011;8261;47.678;-122.174;2022-08-25T10:42:44;6.73;;;6.10;;
16304;SDS011;8261;47.678;-122.174;2022-08-25T10:45:26;6.80;;;6.10;;
16304;SDS011;8261;47.678;-122.174;2022-08-25T10:48:24;7.77;;;6.07;;
16304;SDS011;8261;47.678;-122.174;2022-08-25T10:51:16;8.97;;;6.20;;
16304;SDS011;8261;47.678;-122.174;2022-08-25T10:54:20;8.10;;;6.67;;
16304;SDS011;8261;47.678;-122.174;2022-08-25T10:57:01;7.27;;;6.50;;
16304;SDS011;8261;47.678;-122.174;2022-08-25T10:59:47;6.53;;;5.93;;
16304;SDS011;8261;47.678;-122.174;2022-08-25T11:05:33;7.03;;;6.17;;
16304;SDS011;8261;47.678;-122.174;2022-08-25T11:08:12;6.53;;;5.83;;
16304;SDS011;8261;47.678;-122.174;2022-08-25T11:10:48;7.00;;;5.83;;
16304;SDS011;8261;47.678;-122.174;2022-08-25T11:13:25;8.73;;;5.67;;
16304;SDS011;8261;47.678;-122.174;2022-08-25T11:16:09;7.13;;;6.33;;
16304;SDS011;8261;47.678;-122.174;2022-08-25T11:18:49;6.50;;;5.90;;
16304;SDS011;8261;47.678;-122.174;2022-08-25T11:21:28;6.87;;;6.20;;
16304;SDS011;8261;47.678;-122.174;2022-08-25T11:24:09;6.90;;;5.60;;
16304;SDS011;8261;47.678;-122.174;2022-08-25T11:26:51;6.10;;;5.50;;
16304;SDS011;8261;47.678;-122.174;2022-08-25T11:29:27;10.73;;;6.07;;
16304;SDS011;8261;47.678;-122.174;2022-08-25T11:32:05;6.27;;;5.67;;
16304;SDS011;8261;47.678;-122.174;2022-08-25T11:34:37;8.63;;;5.80;;
16304;SDS011;8261;47.678;-122.174;2022-08-25T11:37:14;6.23;;;5.57;;
16304;SDS011;8261;47.678;-122.174;2022-08-25T11:42:55;9.80;;;6.20;;
16304;SDS011;8261;47.678;-122.174;2022-08-25T11:48:33;6.20;;;5.60;;
16304;SDS011;8261;47.678;-122.174;2022-08-25T11:51:11;7.53;;;5.57;;
16304;SDS011;8261;47.678;-122.174;2022-08-25T11:54:11;9.50;;;6.00;;
16304;SDS011;8261;47.678;-122.174;2022-08-25T11:56:53;5.87;;;5.37;;
16304;SDS011;8261;47.678;-122.174;2022-08-25T12:02:38;7.00;;;6.40;;
16304;SDS011;8261;47.678;-122.174;2022-08-25T12:08:16;7.73;;;5.83;;
16304;SDS011;8261;47.678;-122.174;2022-08-25T12:11:45;7.23;;;5.90;;
16304;SDS011;8261;47.678;-122.174;2022-08-25T12:17:25;6.50;;;5.90;;
16304;SDS011;8261;47.678;-122.174;2022-08-25T12:20:07;7.40;;;5.90;;
16304;SDS011;8261;47.678;-122.174;2022-08-25T12:22:41;5.93;;;5.07;;
16304;SDS011;8261;47.678;-122.174;2022-08-25T12:31:49;6.40;;;5.73;;
16304;SDS011;8261;47.678;-122.174;2022-08-25T12:35:02;7.37;;;6.00;;
16304;SDS011;8261;47.678;-122.174;2022-08-25T12:37:56;7.23;;;5.60;;
16304;SDS011;8261;47.678;-122.174;2022-08-25T12:40:35;7.67;;;5.90;;
16304;SDS011;8261;47.678;-122.174;2022-08-25T12:43:10;8.57;;;6.00;;
16304;SDS011;8261;47.678;-122.174;2022-08-25T12:45:52;8.63;;;6.13;;
16304;SDS011;8261;47.678;-122.174;2022-08-25T12:48:56;8.47;;;6.37;;
16304;SDS011;8261;47.678;-122.174;2022-08-25T12:51:47;6.60;;;6.00;;
16304;SDS011;8261;47.678;-122.174;2022-08-25T12:54:28;7.37;;;6.70;;
16304;SDS011;8261;47.678;-122.174;2022-08-25T12:57:13;7.40;;;6.67;;
16304;SDS011;8261;47.678;-122.174;2022-08-25T13:00:03;10.47;;;6.10;;
16304;SDS011;8261;47.678;-122.174;2022-08-25T13:03:01;6.60;;;6.00;;
16304;SDS011;8261;47.678;-122.174;2022-08-25T13:06:05;6.97;;;6.37;;
16304;SDS011;8261;47.678;-122.174;2022-08-25T13:09:07;7.13;;;6.40;;
16304;SDS011;8261;47.678;-122.174;2022-08-25T13:11:59;13.70;;;6.90;;
16304;SDS011;8261;47.678;-122.174;2022-08-25T13:14:38;9.23;;;6.47;;
16304;SDS011;8261;47.678;-122.174;2022-08-25T13:17:11;7.90;;;6.77;;
16304;SDS011;8261;47.678;-122.174;2022-08-25T13:20:14;7.57;;;6.80;;
16304;SDS011;8261;47.678;-122.174;2022-08-25T13:22:51;6.97;;;6.27;;
16304;SDS011;8261;47.678;-122.174;2022-08-25T13:25:27;10.07;;;7.07;;
16304;SDS011;8261;47.678;-122.174;2022-08-25T13:28:03;7.27;;;6.67;;
16304;SDS011;8261;47.678;-122.174;2022-08-25T13:30:37;7.80;;;7.00;;
16304;SDS011;8261;47.678;-122.174;2022-08-25T13:33:15;8.23;;;6.53;;
16304;SDS011;8261;47.678;-122.174;2022-08-25T13:35:48;7.70;;;6.77;;
16304;SDS011;8261;47.678;-122.174;2022-08-25T13:38:45;7.37;;;6.67;;
16304;SDS011;8261;47.678;-122.174;2022-08-25T13:41:18;7.00;;;6.37;;
16304;SDS011;8261;47.678;-122.174;2022-08-25T13:43:59;7.90;;;7.10;;
16304;SDS011;8261;47.678;-122.174;2022-08-25T13:46:31;7.30;;;6.67;;
16304;SDS011;8261;47.678;-122.174;2022-08-25T13:49:03;7.90;;;7.10;;
16304;SDS011;8261;47.678;-122.174;2022-08-25T13:51:37;6.90;;;6.30;;
16304;SDS011;8261;47.678;-122.174;2022-08-25T13:54:26;7.80;;;6.90;;
16304;SDS011;8261;47.678;-122.174;2022-08-25T13:57:11;9.33;;;6.47;;
16304;SDS011;8261;47.678;-122.174;2022-08-25T13:59:47;7.70;;;6.37;;
16304;SDS011;8261;47.678;-122.174;2022-08-25T14:05:16;8.50;;;6.07;;
16304;SDS011;8261;47.678;-122.174;2022-08-25T14:08:02;7.00;;;6.37;;
16304;SDS011;8261;47.678;-122.174;2022-08-25T14:10:52;9.23;;;6.67;;
16304;SDS011;8261;47.678;-122.174;2022-08-25T14:13:41;7.63;;;6.73;;
16304;SDS011;8261;47.678;-122.174;2022-08-25T14:16:18;6.87;;;6.07;;
16304;SDS011;8261;47.678;-122.174;2022-08-25T14:18:52;6.60;;;6.10;;
16304;SDS011;8261;47.678;-122.174;2022-08-25T14:21:25;9.70;;;6.97;;
16304;SDS011;8261;47.678;-122.174;2022-08-25T14:24:00;6.57;;;5.97;;
16304;SDS011;8261;47.678;-122.174;2022-08-25T14:26:38;8.50;;;6.30;;
16304;SDS011;8261;47.678;-122.174;2022-08-25T14:29:20;7.87;;;6.50;;
16304;SDS011;8261;47.678;-122.174;2022-08-25T14:31:51;7.20;;;6.40;;
16304;SDS011;8261;47.678;-122.174;2022-08-25T14:34:25;8.70;;;6.80;;
16304;SDS011;8261;47.678;-122.174;2022-08-25T14:36:59;6.77;;;6.10;;
16304;SDS011;8261;47.678;-122.174;2022-08-25T14:39:30;7.57;;;6.27;;
16304;SDS011;8261;47.678;-122.174;2022-08-25T14:42:14;7.77;;;6.63;;
16304;SDS011;8261;47.678;-122.174;2022-08-25T14:44:51;10.33;;;8.33;;
16304;SDS011;8261;47.678;-122.174;2022-08-25T14:47:22;12.00;;;9.43;;
16304;SDS011;8261;47.678;-122.174;2022-08-25T14:49:53;13.60;;;10.90;;
16304;SDS011;8261;47.678;-122.174;2022-08-25T14:52:29;15.83;;;12.10;;
16304;SDS011;8261;47.678;-122.174;2022-08-25T14:55:00;12.17;;;10.97;;
16304;SDS011;8261;47.678;-122.174;2022-08-25T14:57:59;11.93;;;10.63;;
16304;SDS011;8261;47.678;-122.174;2022-08-25T15:00:33;12.77;;;10.60;;
16304;SDS011;8261;47.678;-122.174;2022-08-25T15:03:06;12.13;;;10.83;;
16304;SDS011;8261;47.678;-122.174;2022-08-25T15:05:48;13.10;;;11.37;;
16304;SDS011;8261;47.678;-122.174;2022-08-25T15:08:19;14.87;;;10.13;;
16304;SDS011;8261;47.678;-122.174;2022-08-25T15:11:10;12.23;;;10.90;;
16304;SDS011;8261;47.678;-122.174;2022-08-25T15:13:58;11.57;;;9.67;;
16304;SDS011;8261;47.678;-122.174;2022-08-25T15:16:56;12.37;;;9.60;;
16304;SDS011;8261;47.678;-122.174;2022-08-25T15:19:43;11.70;;;9.27;;
16304;SDS011;8261;47.678;-122.174;2022-08-25T15:22:17;10.93;;;9.03;;
16304;SDS011;8261;47.678;-122.174;2022-08-25T15:24:56;9.47;;;8.47;;
16304;SDS011;8261;47.678;-122.174;2022-08-25T15:27:41;9.73;;;8.73;;
16304;SDS011;8261;47.678;-122.174;2022-08-25T15:30:17;9.20;;;8.30;;
16304;SDS011;8261;47.678;-122.174;2022-08-25T15:32:59;10.17;;;8.03;;
16304;SDS011;8261;47.678;-122.174;2022-08-25T15:35:39;8.40;;;7.70;;
16304;SDS011;8261;47.678;-122.174;2022-08-25T15:38:11;7.87;;;7.17;;
16304;SDS011;8261;47.678;-122.174;2022-08-25T15:40:49;9.33;;;7.07;;
16304;SDS011;8261;47.678;-122.174;2022-08-25T15:43:49;7.97;;;6.97;;
16304;SDS011;8261;47.678;-122.174;2022-08-25T15:46:33;9.27;;;7.40;;
16304;SDS011;8261;47.678;-122.174;2022-08-25T15:49:12;10.60;;;7.30;;
16304;SDS011;8261;47.678;-122.174;2022-08-25T15:51:50;8.53;;;7.57;;
16304;SDS011;8261;47.678;-122.174;2022-08-25T15:54:23;9.23;;;6.50;;
16304;SDS011;8261;47.678;-122.174;2022-08-25T15:57:06;8.80;;;7.10;;
16304;SDS011;8261;47.678;-122.174;2022-08-25T15:59:50;10.87;;;8.20;;
16304;SDS011;8261;47.678;-122.174;2022-08-25T16:02:39;11.30;;;8.43;;
16304;SDS011;8261;47.678;-122.174;2022-08-25T16:05:12;8.77;;;7.10;;
16304;SDS011;8261;47.678;-122.174;2022-08-25T16:07:46;10.53;;;7.40;;
16304;SDS011;8261;47.678;-122.174;2022-08-25T16:10:20;9.00;;;7.27;;
16304;SDS011;8261;47.678;-122.174;2022-08-25T16:13:06;8.20;;;6.97;;
16304;SDS011;8261;47.678;-122.174;2022-08-25T16:15:51;9.43;;;7.50;;
16304;SDS011;8261;47.678;-122.174;2022-08-25T16:18:25;8.80;;;7.80;;
16304;SDS011;8261;47.678;-122.174;2022-08-25T16:20:57;9.93;;;8.23;;
16304;SDS011;8261;47.678;-122.174;2022-08-25T16:23:38;8.90;;;7.77;;
16304;SDS011;8261;47.678;-122.174;2022-08-25T16:26:10;9.57;;;7.73;;
16304;SDS011;8261;47.678;-122.174;2022-08-25T16:28:43;11.60;;;8.57;;